Time;durP1;ratioP1;P1;durP2;ratioP2;P2;SDS_P1;SDS_P2;PMS_P1;PMS_P2;Temp;Humidity;BMP_temperature;BMP_pressure;BME280_temperature;BME280_humidity;BME280_pressure;Samples;Min_cycle;Max_cycle;Signal;HPM_P1;HPM_P2
2022/11/16 00:00:09;;;;;;;0.10;0.10;;;;;;;18.09;70.59;100094.41;2034902;29;20111;-66
2022/11/16 00:01:15;;;;;;;0.10;0.10;;;;;;;18.10;70.65;100090.50;2033252;29;20051;-66
2022/11/16 00:02:16;;;;;;;0.00;0.00;;;;;;;18.09;70.58;100085.44;2028015;29;20084;-66
2022/11/16 00:03:20;;;;;;;0.00;0.00;;;;;;;18.09;70.42;100088.97;2025404;29;20052;-66
2022/11/16 00:04:22;;;;;;;0.10;0.10;;;;;;;18.10;70.57;100087.75;2034552;29;20055;-66
2022/11/16 00:05:25;;;;;;;0.00;0.00;;;;;;;18.11;70.44;100097.50;2032140;29;20056;-67
2022/11/16 00:06:29;;;;;;;0.00;0.00;;;;;;;18.11;70.54;100097.50;2032468;29;20534;-66
2022/11/16 00:07:32;;;;;;;0.00;0.00;;;;;;;18.12;70.63;100092.81;2030365;29;20536;-66
2022/11/16 00:08:35;;;;;;;0.00;0.00;;;;;;;18.12;70.57;100096.34;2035090;29;20067;-66
2022/11/16 00:09:38;;;;;;;0.10;0.10;;;;;;;18.12;70.62;100076.44;2032891;29;20118;-67
2022/11/16 00:10:40;;;;;;;0.10;0.10;;;;;;;18.11;70.43;100092.03;2035776;29;20067;-67
2022/11/16 00:11:43;;;;;;;0.00;0.00;;;;;;;18.12;70.62;100093.59;2029781;29;20092;-66
2022/11/16 00:12:44;;;;;;;0.05;0.05;;;;;;;18.10;70.41;100085.03;2022346;29;20049;-67
2022/11/16 00:13:49;;;;;;;0.08;0.08;;;;;;;18.13;70.43;100089.69;2023503;29;20045;-67
2022/11/16 00:14:50;;;;;;;0.10;0.10;;;;;;;18.13;70.50;100088.88;2031660;29;20063;-66
2022/11/16 00:15:55;;;;;;;0.00;0.00;;;;;;;18.13;70.28;100089.69;2024636;29;20064;-67
2022/11/16 00:16:58;;;;;;;0.10;0.10;;;;;;;18.12;70.55;100082.69;2023736;29;20063;-67
2022/11/16 00:18:00;;;;;;;0.08;0.08;;;;;;;18.12;70.46;100082.69;2029201;29;21759;-67
2022/11/16 00:19:05;;;;;;;0.10;0.10;;;;;;;18.14;70.51;100080.28;2032022;29;20048;-67
2022/11/16 00:20:08;;;;;;;0.05;0.05;;;;;;;18.14;70.17;100079.53;2031479;29;20111;-67
2022/11/16 00:21:11;;;;;;;0.08;0.08;;;;;;;18.13;70.11;100076.00;2032837;29;20393;-67
2022/11/16 00:22:13;;;;;;;0.00;0.00;;;;;;;18.14;70.52;100077.56;2031803;29;20048;-67
2022/11/16 00:23:15;;;;;;;0.00;0.00;;;;;;;18.12;70.29;100071.75;2030881;29;20416;-67
2022/11/16 00:24:20;;;;;;;0.10;0.10;;;;;;;18.16;70.36;100077.16;2031863;29;20059;-67
2022/11/16 00:25:21;;;;;;;0.00;0.00;;;;;;;18.15;70.24;100081.06;2034948;29;20071;-67
2022/11/16 00:26:24;;;;;;;0.00;0.00;;;;;;;18.16;70.45;100080.66;2033723;29;20148;-67
2022/11/16 00:27:26;;;;;;;0.10;0.10;;;;;;;18.16;70.40;100082.59;2022301;29;20057;-67
2022/11/16 00:28:29;;;;;;;0.00;0.00;;;;;;;18.16;70.30;100077.16;2024021;29;20472;-67
2022/11/16 00:29:34;;;;;;;0.00;0.00;;;;;;;18.16;70.29;100068.94;2029953;29;20061;-65
2022/11/16 00:30:35;;;;;;;0.05;0.05;;;;;;;18.16;70.54;100079.88;2031284;29;20056;-67
2022/11/16 00:31:38;;;;;;;0.00;0.00;;;;;;;18.17;70.42;100067.78;2032771;29;20052;-67
2022/11/16 00:32:41;;;;;;;0.00;0.00;;;;;;;18.13;70.25;100062.34;2026427;29;20055;-67
2022/11/16 00:33:43;;;;;;;0.05;0.05;;;;;;;18.16;70.47;100071.69;2021168;29;20502;-67
2022/11/16 00:34:45;;;;;;;0.08;0.08;;;;;;;18.17;70.49;100067.78;2033500;29;20055;-67
2022/11/16 00:35:47;;;;;;;0.00;0.00;;;;;;;18.17;70.24;100068.53;2030620;29;20050;-67
2022/11/16 00:36:50;;;;;;;0.08;0.08;;;;;;;18.16;70.47;100058.00;2032134;29;20752;-67
2022/11/16 00:37:52;;;;;;;0.10;0.10;;;;;;;18.17;70.44;100063.06;2031086;29;20784;-66
2022/11/16 00:38:55;;;;;;;0.10;0.10;;;;;;;18.18;70.56;100067.38;2031887;29;20428;-67
2022/11/16 00:39:57;;;;;;;0.10;0.10;;;;;;;18.18;70.14;100061.13;2032766;29;20058;-67
2022/11/16 00:41:00;;;;;;;0.00;0.00;;;;;;;18.20;70.23;100065.00;2034517;29;20059;-67
2022/11/16 00:42:01;;;;;;;0.00;0.00;;;;;;;18.19;70.19;100065.41;2031606;29;20131;-67
2022/11/16 00:43:04;;;;;;;0.10;0.10;;;;;;;18.19;70.25;100063.44;2035295;29;20508;-67
2022/11/16 00:44:06;;;;;;;0.03;0.03;;;;;;;18.20;70.19;100067.75;2031641;29;20059;-67
2022/11/16 00:45:11;;;;;;;0.00;0.00;;;;;;;18.18;70.32;100053.72;2026661;29;20048;-66
2022/11/16 00:46:13;;;;;;;0.10;0.10;;;;;;;18.19;70.06;100054.50;2027648;29;20080;-66
2022/11/16 00:47:16;;;;;;;0.10;0.10;;;;;;;18.19;70.13;100052.50;2031822;29;20048;-67
2022/11/16 00:48:18;;;;;;;0.00;0.00;;;;;;;18.19;70.32;100052.50;2033050;29;20111;-67
2022/11/16 00:49:21;;;;;;;0.10;0.10;;;;;;;18.18;70.30;100056.44;2035354;29;20056;-67
2022/11/16 00:50:23;;;;;;;0.08;0.08;;;;;;;18.20;70.18;100061.50;2021134;29;20049;-67
2022/11/16 00:51:25;;;;;;;0.10;0.10;;;;;;;18.20;70.12;100054.09;2022458;29;20049;-67
2022/11/16 00:52:27;;;;;;;0.00;0.00;;;;;;;18.16;70.18;100050.59;2020260;29;20113;-67
2022/11/16 00:53:31;;;;;;;0.10;0.10;;;;;;;18.20;70.19;100056.81;2023620;29;20362;-67
2022/11/16 00:54:32;;;;;;;0.00;0.00;;;;;;;18.20;70.14;100051.34;2020104;29;20083;-67
2022/11/16 00:55:36;;;;;;;0.10;0.10;;;;;;;18.21;69.97;100055.63;2023835;29;20132;-67
2022/11/16 00:56:38;;;;;;;0.10;0.10;;;;;;;18.21;70.18;100044.69;2026527;29;20053;-67
2022/11/16 00:57:41;;;;;;;0.10;0.10;;;;;;;18.20;70.04;100042.38;2017136;29;20421;-67
2022/11/16 00:58:43;;;;;;;0.10;0.10;;;;;;;18.21;70.28;100049.38;2016109;29;20057;-66
2022/11/16 00:59:46;;;;;;;0.00;0.00;;;;;;;18.22;70.03;100054.41;2022812;29;20064;-65
2022/11/16 01:00:49;;;;;;;0.03;0.03;;;;;;;18.22;69.93;100051.69;2019776;29;20056;-65
2022/11/16 01:01:52;;;;;;;0.10;0.10;;;;;;;18.21;70.04;100044.69;2022868;29;20060;-66
2022/11/16 01:02:54;;;;;;;0.03;0.03;;;;;;;18.21;69.87;100052.09;2030953;29;20826;-66
2022/11/16 01:03:57;;;;;;;0.10;0.10;;;;;;;18.20;70.16;100040.41;2031479;29;20120;-66
2022/11/16 01:04:59;;;;;;;0.10;0.10;;;;;;;18.20;69.90;100039.63;2030934;29;20063;-66
2022/11/16 01:06:06;;;;;;;0.10;0.10;;;;;;;18.19;69.79;100029.91;2028009;29;20060;-66
2022/11/16 01:07:08;;;;;;;0.00;0.00;;;;;;;18.19;69.83;100032.63;2028955;29;20055;-66
2022/11/16 01:08:11;;;;;;;0.10;0.10;;;;;;;18.18;69.99;100037.31;2028622;29;20086;-66
2022/11/16 01:09:13;;;;;;;0.00;0.00;;;;;;;18.19;69.90;100041.59;2030716;29;20088;-66
2022/11/16 01:10:17;;;;;;;0.10;0.10;;;;;;;18.20;69.90;100034.94;2028223;29;20059;-65
2022/11/16 01:12:39;;;;;;;0.10;0.10;;;;;;;18.15;70.06;100027.22;2034715;29;20059;-65
2022/11/16 01:13:41;;;;;;;0.10;0.10;;;;;;;18.14;70.11;100030.34;2036093;29;20047;-65
2022/11/16 01:14:46;;;;;;;0.10;0.10;;;;;;;18.15;69.88;100032.69;2033638;29;20052;-66
2022/11/16 01:15:49;;;;;;;0.00;0.00;;;;;;;18.17;69.79;100029.53;2032521;29;20064;-66
2022/11/16 01:16:52;;;;;;;0.03;0.03;;;;;;;18.15;69.74;100034.63;2032904;29;20078;-67
2022/11/16 01:17:54;;;;;;;0.03;0.03;;;;;;;18.14;69.68;100031.09;2032603;29;20523;-64
2022/11/16 01:18:57;;;;;;;0.00;0.00;;;;;;;18.15;69.80;100031.88;2034119;29;20056;-65
2022/11/16 01:20:00;;;;;;;0.00;0.00;;;;;;;18.14;69.87;100030.34;2035659;29;20094;-66
2022/11/16 01:21:04;;;;;;;0.00;0.00;;;;;;;18.14;69.58;100028.38;2032923;29;20048;-66
2022/11/16 01:22:07;;;;;;;0.10;0.10;;;;;;;18.11;69.94;100026.47;2035507;29;20117;-66
2022/11/16 01:23:09;;;;;;;0.10;0.10;;;;;;;18.10;69.88;100027.66;2035769;29;20048;-66
2022/11/16 01:24:12;;;;;;;0.03;0.03;;;;;;;18.13;69.90;100028.78;2035594;29;20056;-66
2022/11/16 01:25:14;;;;;;;0.00;0.00;;;;;;;18.12;69.78;100033.50;2031472;29;20067;-66
2022/11/16 01:26:17;;;;;;;0.10;0.10;;;;;;;18.11;69.77;100026.47;2033331;29;20052;-67
2022/11/16 01:27:19;;;;;;;0.10;0.10;;;;;;;18.08;69.88;100018.31;2031242;29;20186;-66
2022/11/16 01:28:22;;;;;;;0.00;0.00;;;;;;;18.10;69.88;100027.66;2037136;29;20104;-65
2022/11/16 01:29:26;;;;;;;0.00;0.00;;;;;;;18.10;69.73;100024.94;2034098;29;20087;-65
2022/11/16 01:30:31;;;;;;;0.15;0.15;;;;;;;18.06;69.78;100020.69;2018574;29;20057;-65
2022/11/16 01:31:39;;;;;;;0.00;0.00;;;;;;;18.09;69.74;100028.84;2011203;29;20049;-65
2022/11/16 01:32:41;;;;;;;0.05;0.05;;;;;;;18.07;69.82;100012.09;2024265;29;20048;-66
2022/11/16 01:33:43;;;;;;;0.10;0.10;;;;;;;18.08;69.73;100016.38;2020281;29;20168;-66
2022/11/16 01:34:55;;;;;;;0.10;0.10;;;;;;;18.05;69.95;100014.47;2028631;29;20652;-65
2022/11/16 01:36:00;;;;;;;0.10;0.10;;;;;;;18.05;69.84;100009.00;2024980;29;20076;-66
2022/11/16 01:37:03;;;;;;;0.10;0.10;;;;;;;18.06;69.87;100020.69;2026876;29;20048;-65
2022/11/16 01:38:08;;;;;;;0.10;0.10;;;;;;;18.02;69.74;100011.75;2025762;29;20091;-67
2022/11/16 01:39:12;;;;;;;0.10;0.10;;;;;;;18.06;69.68;100012.50;2016907;29;20052;-67
2022/11/16 01:40:19;;;;;;;0.10;0.10;;;;;;;18.02;70.02;100014.50;2024816;29;20139;-67
2022/11/16 01:41:24;;;;;;;0.10;0.10;;;;;;;18.04;69.65;100009.41;2024553;29;20064;-66
2022/11/16 01:42:33;;;;;;;0.10;0.10;;;;;;;18.02;69.80;100011.75;2026382;29;20064;-67
2022/11/16 01:43:50;;;;;;;0.10;0.10;;;;;;;17.96;69.74;100008.72;2024690;29;20156;-67
2022/11/16 01:45:03;;;;;;;0.10;0.10;;;;;;;17.98;69.69;100006.38;2027160;29;20508;-67
2022/11/16 01:46:06;;;;;;;0.10;0.10;;;;;;;17.97;70.09;100004.81;2016225;29;20098;-66
2022/11/16 01:47:12;;;;;;;0.10;0.10;;;;;;;17.99;69.84;100002.44;2013374;29;20057;-66
2022/11/16 01:48:18;;;;;;;0.10;0.10;;;;;;;17.99;69.91;99996.19;2025297;29;20116;-67
2022/11/16 01:49:25;;;;;;;0.10;0.10;;;;;;;17.96;69.90;99997.81;2030554;29;20419;-66
2022/11/16 01:50:29;;;;;;;0.10;0.10;;;;;;;17.96;69.94;100003.25;2034259;29;20087;-67
2022/11/16 01:51:33;;;;;;;0.10;0.10;;;;;;;17.97;69.96;99993.88;2031987;29;20056;-66
2022/11/16 01:52:41;;;;;;;0.10;0.10;;;;;;;17.96;70.06;99995.06;2022563;29;20055;-66
2022/11/16 01:53:44;;;;;;;0.10;0.10;;;;;;;17.96;70.11;99997.81;2017101;29;20128;-67
2022/11/16 01:54:48;;;;;;;0.00;0.00;;;;;;;17.96;70.05;99997.81;2013176;29;20737;-67
2022/11/16 01:55:52;;;;;;;0.00;0.00;;;;;;;17.95;70.08;99990.78;2017478;29;20045;-66
2022/11/16 01:57:31;;;;;;;0.10;0.10;;;;;;;17.88;70.21;99985.41;2017480;29;20082;-65
2022/11/16 01:58:41;;;;;;;0.03;0.03;;;;;;;17.88;70.36;99988.16;2027142;29;20430;-66
2022/11/16 01:59:51;;;;;;;0.00;0.00;;;;;;;17.88;70.51;99985.41;2027302;29;20063;-66
2022/11/16 02:00:56;;;;;;;0.00;0.00;;;;;;;17.90;70.58;99988.53;2030744;29;20052;-66
2022/11/16 02:02:09;;;;;;;0.05;0.05;;;;;;;17.89;70.69;99984.22;2024085;29;20091;-66
2022/11/16 02:03:12;;;;;;;0.10;0.10;;;;;;;17.89;70.66;99976.81;2023033;29;20044;-66
2022/11/16 02:04:20;;;;;;;0.05;0.05;;;;;;;17.88;70.75;99979.97;2023071;29;20143;-66
2022/11/16 02:05:33;;;;;;;0.00;0.00;;;;;;;17.88;70.87;99974.50;2032130;29;20051;-66
2022/11/16 02:06:57;;;;;;;0.00;0.00;;;;;;;17.82;70.51;99973.41;2034446;29;20243;-66
2022/11/16 02:09:57;;;;;;;;;;;;;;;17.57;71.04;99964.72;2017863;29;20197;-66
2022/11/16 02:11:26;;;;;;;0.05;0.05;;;;;;;17.66;70.88;99962.31;2018121;29;19963;-66
2022/11/16 02:12:48;;;;;;;0.00;0.00;;;;;;;17.70;71.05;99963.00;2017477;29;20063;-66
2022/11/16 02:14:02;;;;;;;0.10;0.10;;;;;;;17.72;70.94;99955.19;2028148;29;20040;-66
2022/11/16 02:15:15;;;;;;;0.10;0.10;;;;;;;17.73;70.99;99962.97;2031717;29;20056;-66
2022/11/16 02:16:32;;;;;;;0.00;0.00;;;;;;;17.73;71.02;99954.00;2021332;29;20052;-66
2022/11/16 02:17:43;;;;;;;0.03;0.03;;;;;;;17.73;71.15;99956.72;2019996;29;20498;-66
2022/11/16 02:18:58;;;;;;;0.00;0.00;;;;;;;17.71;71.22;99948.97;2019012;29;20433;-66
2022/11/16 02:20:42;;;;;;;0.03;0.03;;;;;;;17.65;71.07;99950.59;2025452;29;20052;-66
2022/11/16 02:21:56;;;;;;;0.00;0.00;;;;;;;17.68;71.48;99944.31;2033943;29;20061;-66
2022/11/16 02:23:15;;;;;;;0.08;0.08;;;;;;;17.67;71.01;99952.91;2033407;29;21202;-66
2022/11/16 02:24:44;;;;;;;0.10;0.10;;;;;;;17.61;71.10;99949.09;2034069;29;20056;-66
2022/11/16 02:25:58;;;;;;;0.10;0.10;;;;;;;17.65;71.42;99945.13;2033374;29;20048;-66
2022/11/16 02:27:39;;;;;;;0.08;0.08;;;;;;;17.58;71.40;99945.22;2032544;29;20400;-66
2022/11/16 02:28:53;;;;;;;0.10;0.10;;;;;;;17.62;71.59;99945.19;2034690;29;20052;-66
2022/11/16 02:29:58;;;;;;;0.00;0.00;;;;;;;17.65;71.26;99947.09;2032511;29;20055;-66
2022/11/16 02:31:02;;;;;;;0.00;0.00;;;;;;;17.67;71.39;99942.00;2035550;29;20060;-66
2022/11/16 02:32:10;;;;;;;0.10;0.10;;;;;;;17.68;71.31;99946.25;2023956;29;20456;-66
2022/11/16 02:33:15;;;;;;;0.10;0.10;;;;;;;17.68;71.35;99944.31;2024884;29;20792;-65
2022/11/16 02:34:21;;;;;;;0.10;0.10;;;;;;;17.67;71.29;99945.50;2030787;29;20048;-66
2022/11/16 02:35:26;;;;;;;0.00;0.00;;;;;;;17.66;71.46;99935.00;2031899;29;20508;-66
2022/11/16 02:36:34;;;;;;;0.00;0.00;;;;;;;17.66;71.52;99941.22;2029562;29;20047;-67
2022/11/16 02:37:39;;;;;;;0.10;0.10;;;;;;;17.68;71.50;99940.81;2033794;29;20052;-66
2022/11/16 02:38:47;;;;;;;0.05;0.05;;;;;;;17.67;71.86;99937.31;2025820;29;20453;-67
2022/11/16 02:39:53;;;;;;;0.00;0.00;;;;;;;17.68;71.51;99935.34;2025996;29;20401;-65
2022/11/16 02:41:02;;;;;;;0.03;0.03;;;;;;;17.67;71.57;99931.84;2023474;29;20043;-66
2022/11/16 02:42:10;;;;;;;0.10;0.10;;;;;;;17.66;71.78;99935.00;2016276;29;20061;-66
2022/11/16 02:43:20;;;;;;;0.10;0.10;;;;;;;17.65;71.16;99927.97;2022640;29;20064;-66
2022/11/16 02:44:29;;;;;;;0.08;0.08;;;;;;;17.65;71.41;99931.50;2024130;29;20040;-66
2022/11/16 02:45:37;;;;;;;0.05;0.05;;;;;;;17.64;71.62;99927.22;2026368;29;20052;-66
2022/11/16 02:46:45;;;;;;;0.08;0.08;;;;;;;17.65;71.58;99928.75;2023250;29;20543;-66
2022/11/16 02:47:51;;;;;;;0.08;0.08;;;;;;;17.67;71.50;99931.06;2018158;29;20049;-66
2022/11/16 02:48:56;;;;;;;0.00;0.00;;;;;;;17.65;71.42;99928.75;2026472;29;20052;-65
2022/11/16 02:50:03;;;;;;;0.03;0.03;;;;;;;17.66;71.38;99924.84;2023012;29;20055;-65
2022/11/16 02:51:06;;;;;;;0.00;0.00;;;;;;;17.63;71.53;99922.94;2022187;29;20073;-66
2022/11/16 02:52:11;;;;;;;0.10;0.10;;;;;;;17.66;71.61;99924.84;2025800;29;20057;-66
2022/11/16 02:53:14;;;;;;;0.05;0.05;;;;;;;17.65;71.56;99922.50;2029573;29;20064;-66
2022/11/16 02:54:19;;;;;;;0.10;0.10;;;;;;;17.67;71.09;99925.63;2031866;29;20063;-66
2022/11/16 02:55:27;;;;;;;0.03;0.03;;;;;;;17.64;71.24;99926.44;2031956;29;20052;-66
2022/11/16 02:56:40;;;;;;;0.10;0.10;;;;;;;17.65;71.26;99922.50;2023352;29;20456;-67
2022/11/16 02:57:53;;;;;;;0.08;0.08;;;;;;;17.62;71.03;99917.88;2025721;29;20110;-67
2022/11/16 02:58:56;;;;;;;0.10;0.10;;;;;;;17.62;71.15;99924.13;2031440;29;20052;-66
2022/11/16 03:00:00;;;;;;;0.08;0.08;;;;;;;17.64;71.21;99929.16;2034214;29;20066;-66
2022/11/16 03:01:13;;;;;;;0.00;0.00;;;;;;;17.61;71.14;99917.13;2027597;29;20067;-66
2022/11/16 03:02:22;;;;;;;0.10;0.10;;;;;;;17.62;71.10;99921.38;2026507;29;20061;-66
2022/11/16 03:03:31;;;;;;;0.10;0.10;;;;;;;17.61;70.98;99921.81;2029578;29;20071;-66
2022/11/16 03:04:36;;;;;;;0.10;0.10;;;;;;;17.62;71.36;99929.59;2033475;29;20083;-66
2022/11/16 03:05:44;;;;;;;0.08;0.08;;;;;;;17.63;71.11;99920.19;2032096;29;20098;-66
2022/11/16 03:06:49;;;;;;;0.00;0.00;;;;;;;17.63;71.05;99919.44;2029102;29;20059;-66
2022/11/16 03:08:00;;;;;;;0.08;0.08;;;;;;;17.62;71.06;99915.16;2031945;29;20397;-66
2022/11/16 03:09:08;;;;;;;0.10;0.10;;;;;;;17.61;71.18;99919.84;2022963;29;20793;-65
2022/11/16 03:11:57;;;;;;;0.03;0.03;;;;;;;17.61;71.07;99922.59;2017377;29;20141;-67
2022/11/16 03:12:56;;;;;;;0.00;0.00;;;;;;;17.56;71.11;99914.84;2027182;29;20052;-66
2022/11/16 03:14:01;;;;;;;0.00;0.00;;;;;;;17.58;71.15;99917.16;2031608;29;20089;-65
2022/11/16 03:15:09;;;;;;;0.03;0.03;;;;;;;17.60;70.88;99923.00;2030597;29;20055;-66
2022/11/16 03:16:17;;;;;;;0.00;0.00;;;;;;;17.59;70.78;99913.25;2032886;29;20056;-66
2022/11/16 03:17:25;;;;;;;0.10;0.10;;;;;;;17.58;71.04;99917.91;2037070;29;20051;-66
2022/11/16 03:18:27;;;;;;;0.10;0.10;;;;;;;17.58;71.06;99914.44;2023136;29;20095;-67
2022/11/16 03:19:39;;;;;;;0.10;0.10;;;;;;;17.57;70.94;99915.59;2024436;29;20726;-67
2022/11/16 03:20:42;;;;;;;0.10;0.10;;;;;;;17.57;71.07;99916.38;2029838;29;20084;-67
2022/11/16 03:21:48;;;;;;;0.10;0.10;;;;;;;17.59;70.84;99915.97;2031234;29;20487;-66
2022/11/16 03:22:53;;;;;;;0.05;0.05;;;;;;;17.58;71.02;99919.88;2031903;29;20056;-66
2022/11/16 03:23:56;;;;;;;0.08;0.08;;;;;;;17.58;71.01;99917.91;2029659;29;20048;-66
2022/11/16 03:24:58;;;;;;;0.10;0.10;;;;;;;17.58;70.88;99912.47;2026512;29;20060;-66
2022/11/16 03:26:06;;;;;;;0.05;0.05;;;;;;;17.59;70.85;99914.03;2025882;29;20105;-66
2022/11/16 03:27:18;;;;;;;0.10;0.10;;;;;;;17.57;70.85;99915.59;2016959;29;20462;-66
2022/11/16 03:28:26;;;;;;;0.05;0.05;;;;;;;17.56;71.10;99914.06;2022574;29;20059;-66
2022/11/16 03:29:32;;;;;;;0.00;0.00;;;;;;;17.55;70.98;99913.28;2023785;29;20057;-65
2022/11/16 03:30:43;;;;;;;;;;;;;;;17.33;71.43;99911.97;2014929;29;20045;-66
2022/11/16 03:31:51;;;;;;;0.00;0.00;;;;;;;17.46;71.08;99915.75;2025663;29;19923;-66
2022/11/16 03:33:01;;;;;;;0.00;0.00;;;;;;;17.50;71.16;99910.25;2030430;29;20055;-67
2022/11/16 03:34:09;;;;;;;0.05;0.05;;;;;;;17.51;71.24;99901.66;2032936;29;20109;-67
2022/11/16 03:35:18;;;;;;;0.10;0.10;;;;;;;17.52;70.99;99902.44;2028428;29;20539;-67
2022/11/16 03:36:26;;;;;;;0.10;0.10;;;;;;;17.50;70.90;99910.25;2020109;29;20040;-66
2022/11/16 03:37:31;;;;;;;0.00;0.00;;;;;;;17.52;70.91;99903.19;2022961;29;20886;-67
2022/11/16 03:38:38;;;;;;;0.05;0.05;;;;;;;17.52;71.03;99902.44;2023136;29;20169;-67
2022/11/16 03:39:42;;;;;;;0.03;0.03;;;;;;;17.52;71.01;99907.88;2018140;29;20053;-67
2022/11/16 03:40:46;;;;;;;0.00;0.00;;;;;;;17.53;71.06;99912.16;2026381;29;20064;-65
2022/11/16 03:41:50;;;;;;;0.10;0.10;;;;;;;17.53;71.10;99903.97;2023795;29;20126;-66
2022/11/16 03:42:54;;;;;;;0.10;0.10;;;;;;;17.54;71.01;99905.50;2023397;29;20058;-66
2022/11/16 03:43:59;;;;;;;0.00;0.00;;;;;;;17.54;71.15;99900.03;2022988;29;20142;-66
2022/11/16 03:45:02;;;;;;;0.10;0.10;;;;;;;17.54;70.97;99900.03;2019019;29;20056;-67
2022/11/16 03:46:06;;;;;;;0.05;0.05;;;;;;;17.54;70.91;99900.81;2029881;29;20171;-66
2022/11/16 03:47:10;;;;;;;0.00;0.00;;;;;;;17.54;70.89;99891.84;2032669;29;20059;-65
2022/11/16 03:48:13;;;;;;;0.10;0.10;;;;;;;17.51;70.75;99895.41;2026108;29;20060;-66
2022/11/16 03:49:19;;;;;;;0.10;0.10;;;;;;;17.53;71.04;99893.06;2024050;29;20525;-66
2022/11/16 03:50:22;;;;;;;0.10;0.10;;;;;;;17.53;70.99;99898.50;2031248;29;20048;-66
2022/11/16 03:51:25;;;;;;;0.08;0.08;;;;;;;17.46;71.24;99893.13;2021227;29;20049;-66
2022/11/16 03:52:30;;;;;;;0.10;0.10;;;;;;;17.53;70.91;99898.50;2015688;29;20073;-66
2022/11/16 03:53:32;;;;;;;0.10;0.10;;;;;;;17.52;71.08;99892.25;2012121;29;20167;-66
2022/11/16 03:54:35;;;;;;;0.10;0.10;;;;;;;17.54;70.48;99891.84;2023824;29;20052;-66
2022/11/16 03:55:37;;;;;;;0.10;0.10;;;;;;;17.53;70.82;99893.06;2035442;29;20055;-66
2022/11/16 03:56:40;;;;;;;0.10;0.10;;;;;;;17.53;70.76;99893.84;2032316;29;20052;-66
2022/11/16 03:57:42;;;;;;;0.00;0.00;;;;;;;17.53;71.07;99895.78;2030470;29;20104;-66
2022/11/16 03:58:45;;;;;;;0.05;0.05;;;;;;;17.53;70.79;99893.06;2022320;29;20059;-66
2022/11/16 03:59:47;;;;;;;0.00;0.00;;;;;;;17.54;71.04;99891.84;2025274;29;20060;-66
2022/11/16 04:00:50;;;;;;;0.00;0.00;;;;;;;17.55;70.92;99894.19;2023483;29;20612;-66
2022/11/16 04:01:52;;;;;;;0.10;0.10;;;;;;;17.53;70.73;99890.31;2030412;29;20040;-66
2022/11/16 04:02:56;;;;;;;0.03;0.03;;;;;;;17.55;70.66;99885.22;2032639;29;20139;-67
2022/11/16 04:03:58;;;;;;;0.10;0.10;;;;;;;17.52;70.70;99888.78;2026698;29;20509;-66
2022/11/16 04:24:25;;;;;;;0.00;0.00;;;;;;;17.37;70.65;99877.25;2025439;29;20052;-66
2022/11/16 04:25:34;;;;;;;0.00;0.00;;;;;;;17.39;70.56;99887.75;2028351;29;20063;-66
2022/11/16 04:29:18;;;;;;;0.05;0.05;;;;;;;17.38;70.77;99880.72;2020863;29;20060;-66
2022/11/16 04:30:20;;;;;;;0.03;0.03;;;;;;;17.39;70.75;99874.88;2021646;29;20048;-65
2022/11/16 04:38:09;;;;;;;0.10;0.10;;;;;;;17.34;70.84;99875.34;2017726;29;20743;-65
2022/11/16 04:39:11;;;;;;;0.00;0.00;;;;;;;17.39;70.55;99882.28;2012053;29;20049;-66
2022/11/16 04:40:15;;;;;;;0.00;0.00;;;;;;;17.38;70.71;99876.03;2019553;29;20504;-67
2022/11/16 04:42:39;;;;;;;0.00;0.00;;;;;;;17.37;70.76;99884.66;2025273;29;20579;-67
2022/11/16 04:43:42;;;;;;;0.00;0.00;;;;;;;17.39;70.62;99882.28;2025333;29;20064;-65
2022/11/16 04:47:28;;;;;;;0.00;0.00;;;;;;;17.37;70.69;99879.19;2008735;29;20065;-66
2022/11/16 04:48:30;;;;;;;0.00;0.00;;;;;;;17.38;70.45;99875.25;2020295;29;20239;-66
2022/11/16 04:49:35;;;;;;;0.10;0.10;;;;;;;17.39;70.40;99883.06;2036096;29;20059;-66
2022/11/16 04:50:37;;;;;;;0.00;0.00;;;;;;;17.39;70.49;99874.88;2037014;29;20052;-66
2022/11/16 04:51:41;;;;;;;0.10;0.10;;;;;;;17.40;70.57;99876.41;2015673;29;20080;-66
2022/11/16 04:52:43;;;;;;;0.05;0.05;;;;;;;17.40;70.53;99883.81;2023580;29;20121;-66
2022/11/16 04:53:47;;;;;;;0.10;0.10;;;;;;;17.41;70.44;99879.94;2024193;29;20048;-66
2022/11/16 04:54:54;;;;;;;0.08;0.08;;;;;;;17.39;70.56;99872.16;2015772;29;20086;-66
2022/11/16 04:55:57;;;;;;;0.10;0.10;;;;;;;17.41;70.59;99866.28;2010533;29;20053;-66
2022/11/16 04:57:02;;;;;;;0.05;0.05;;;;;;;17.39;70.57;99866.69;2024082;29;20044;-66
2022/11/16 04:58:05;;;;;;;0.03;0.03;;;;;;;17.34;70.61;99850.00;2023570;29;20087;-66
2022/11/16 04:59:07;;;;;;;0.00;0.00;;;;;;;17.42;70.28;99857.69;2023960;29;20060;-66
2022/11/16 05:00:11;;;;;;;0.10;0.10;;;;;;;17.43;70.41;99863.91;2032735;29;20059;-66
2022/11/16 05:01:13;;;;;;;0.10;0.10;;;;;;;17.40;70.41;99857.31;2019867;29;20127;-66
2022/11/16 05:02:17;;;;;;;0.10;0.10;;;;;;;17.42;70.44;99870.56;2024293;29;20171;-66
2022/11/16 05:03:29;;;;;;;0.08;0.08;;;;;;;17.41;70.16;99864.31;2024238;29;20129;-66
2022/11/16 05:04:32;;;;;;;0.00;0.00;;;;;;;17.42;70.35;99870.56;2023812;29;20099;-67
2022/11/16 05:05:35;;;;;;;0.00;0.00;;;;;;;17.39;70.18;99866.69;2033468;29;20048;-66
2022/11/16 05:06:39;;;;;;;0.00;0.00;;;;;;;17.42;70.22;99870.56;2033104;29;20107;-66
2022/11/16 05:07:41;;;;;;;0.00;0.00;;;;;;;17.43;70.32;99869.34;2034039;29;20047;-66
2022/11/16 05:08:53;;;;;;;0.10;0.10;;;;;;;17.41;70.27;99877.97;2033317;29;20124;-67
2022/11/16 05:09:55;;;;;;;0.05;0.05;;;;;;;17.42;70.17;99876.00;2030856;29;20063;-67
2022/11/16 05:10:57;;;;;;;0.00;0.00;;;;;;;17.44;70.16;99873.66;2029322;29;20083;-67
2022/11/16 05:11:59;;;;;;;0.00;0.00;;;;;;;17.44;70.04;99873.66;2030738;29;20051;-65
2022/11/16 05:13:02;;;;;;;0.00;0.00;;;;;;;17.44;70.16;99870.91;2034050;29;20067;-66
2022/11/16 05:14:04;;;;;;;0.00;0.00;;;;;;;17.43;70.13;99872.88;2029518;29;20056;-67
2022/11/16 05:15:08;;;;;;;0.00;0.00;;;;;;;17.44;69.89;99868.19;2026595;29;20053;-67
2022/11/16 05:16:10;;;;;;;0.10;0.10;;;;;;;17.43;70.13;99872.09;2032909;29;20056;-66
2022/11/16 05:17:17;;;;;;;0.00;0.00;;;;;;;17.44;70.09;99871.72;2024398;29;20060;-67
2022/11/16 05:18:19;;;;;;;0.08;0.08;;;;;;;17.43;69.98;99872.09;2024234;29;20500;-67
2022/11/16 05:21:01;;;;;;;;;;;;;;;17.18;70.24;99858.75;2031452;29;20183;-67
2022/11/16 05:22:09;;;;;;;0.10;0.10;;;;;;;17.29;70.39;99867.59;2032304;29;20314;-67
2022/11/16 05:24:36;;;;;;;0.10;0.10;;;;;;;17.34;70.22;99858.19;2035280;29;20086;-67
2022/11/16 05:25:40;;;;;;;0.10;0.10;;;;;;;17.35;70.16;99860.50;2025865;29;20060;-67
2022/11/16 05:26:45;;;;;;;0.00;0.00;;;;;;;17.36;69.97;99861.28;2009680;29;20053;-66
2022/11/16 05:27:52;;;;;;;0.00;0.00;;;;;;;17.37;70.12;99857.34;2020924;29;20056;-67
2022/11/16 05:28:54;;;;;;;0.10;0.10;;;;;;;17.38;70.07;99864.34;2032504;29;20499;-67
2022/11/16 05:29:57;;;;;;;0.10;0.10;;;;;;;17.38;69.97;99861.63;2035017;29;20412;-65
2022/11/16 05:30:59;;;;;;;0.10;0.10;;;;;;;17.39;69.90;99860.47;2033719;29;20822;-66
2022/11/16 05:32:06;;;;;;;0.10;0.10;;;;;;;17.35;69.98;99848.81;2032159;29;20095;-66
2022/11/16 05:33:09;;;;;;;0.00;0.00;;;;;;;17.38;69.83;99867.84;2033683;29;20544;-67
2022/11/16 05:34:18;;;;;;;0.03;0.03;;;;;;;17.39;69.98;99865.91;2026755;29;20094;-67
2022/11/16 05:35:21;;;;;;;0.00;0.00;;;;;;;17.38;69.97;99862.41;2031923;29;20051;-66
2022/11/16 05:36:26;;;;;;;0.08;0.08;;;;;;;17.39;70.00;99861.25;2033800;29;20287;-66
2022/11/16 05:37:29;;;;;;;0.10;0.10;;;;;;;17.38;70.05;99865.13;2034398;29;20048;-67
2022/11/16 05:38:32;;;;;;;0.10;0.10;;;;;;;17.39;70.02;99863.19;2023085;29;20422;-67
2022/11/16 05:39:36;;;;;;;0.10;0.10;;;;;;;17.40;70.03;99862.00;2017857;29;20076;-67
2022/11/16 05:40:39;;;;;;;0.08;0.08;;;;;;;17.38;69.97;99858.88;2023777;29;20461;-67
2022/11/16 05:41:41;;;;;;;0.03;0.03;;;;;;;17.40;69.74;99862.00;2031960;29;20053;-67
2022/11/16 05:42:44;;;;;;;0.00;0.00;;;;;;;17.41;69.91;99858.09;2028311;29;20079;-66
2022/11/16 05:43:46;;;;;;;0.10;0.10;;;;;;;17.41;69.97;99869.00;2028164;29;20584;-66
2022/11/16 05:44:53;;;;;;;0.00;0.00;;;;;;;17.37;70.05;99868.28;2025196;29;20059;-66
2022/11/16 05:45:55;;;;;;;0.10;0.10;;;;;;;17.41;69.84;99871.75;2025310;29;20068;-66
2022/11/16 05:46:58;;;;;;;0.10;0.10;;;;;;;17.40;69.78;99875.63;2027114;29;20748;-66
2022/11/16 05:48:00;;;;;;;0.08;0.08;;;;;;;17.41;69.75;99874.47;2025592;29;20061;-66